Gable, SC (29051)

7:58 PM EDT on September 01, 2014 (GMT -0400)
Williamsburg County | Change Station
CLOSE
Current Station
Airport
Location: Kingstree,
Elevation: 66 ft
Nearby Weather Stations

Elev 66 ft 33.72 °N, 79.86 °W | Updated 3 minutes ago

Clear
Clear
79 °F
Feels Like 79 °F
N
0
Wind Variable Wind from North

Today
High -- | Low -- °F
--% Chance of Precip.
Yesterday
High -- | Low -- °F
Precip. -- in
6:54 AM 7:45 PM
Waxing Crescent, 45% visible
Pressure 30.06 in
Visibility 10.0 miles
Clouds Clear
Dew Point 72 °F
Humidity 78%
Rainfall 0.00 in
Snow Depth Not available.
UV 0 out of 12
Pollen 8.70 out of 12
Air Quality Not available.
Flu Activity Not available.
METAR KCKI 012355Z AUTO 00000KT 10SM CLR 26/22 A3006 RMK AO2

More Conditions Fewer Conditions

Pressure 30.06 in
Visibility 10.0 miles
Clouds Clear
Dew Point 72 °F
Humidity 78%
Rainfall 0.00 in
Snow Depth Not available.
UV 0 out of 12
Pollen 8.70 out of 12
Air Quality Not available.
Flu Activity Not available.
METAR KCKI 012355Z AUTO 00000KT 10SM CLR 26/22 A3006 RMK AO2

More Conditions Fewer Conditions

10-Day Weather Forecast

Almanac

Astronomy

Sep. 01, 2014 Rise Set
Actual Time 6:54 AM EDT 7:45 PM EDT
Civil Twilight 6:28 AM EDT 8:11 PM EDT
Nautical Twilight 5:58 AM EDT 8:41 PM EDT
Astronomical Twilight 5:27 AM EDT 9:12 PM EDT
Moon 1:19 PM EDT No Moon Set
Length of Visible Light 13h 42m
Length of Day
12h 51m
Tomorrow will be 2m 0s shorter.
Waxing Crescent, 45% of the Moon is Illuminated
Today
Waxing Crescent
Sep 2
First Quarter
Sep 8
Full
Sep 15
Last Quarter
Sep 24
New

Today's Extremes

State Highs State Lows

Community

WunderPhotos

Upload Photos

1,749,440 photos uploaded!

Nearby

Snow Depth

Station Depth Elevation
No new snow has been reported.

Earthquake Activity

City Distance Mag. Time & Date
No recent earthquake activity has been reported nearby.
Minimum magnitude displayed is 2.5.

Coastal Water Temperatures

Place Temperature
No Stations Reporting

Nearby Weather Stations